Social login voor leden:
opendeurdagen

 

METAR EBOS 281150Z 28013KT 9999 FEW015 BKN040 19/15 Q1015 NOSIG
TAF TAF EBOS 281130Z 2812/2918 26014KT 9999 SCT026 BECMG 2818/2820 BKN013 PROB30 TEMPO 2821/2903 4000 SHRA BKN006 BKN012TCU BECMG 2905/2907 SCT020

Welkom op onze derde zomerse BBQ voor piloten, familie,vrienden & luchtvaartsympathisanten !

bbqbanner

Datum: zaterdag 27 Augustus 2016 vanaf 18:30
Locatie: Feestzaal Hellegathoeve, Hellegatstraat 3 8490 Zerkegem (Jabbeke)

Menu volwassenen € 30 per persoon:
Chateaubriand met Bearnaisesaus – kipfilet - worst – groenten - aardappelsalade – pastasalade – diverse sauzen – brood

Kindermenu € 15 per persoon:
Worst – groenten - aardappelsalade – pastasalade – diverse sauzen – brood

Diverse aangepaste wijnen en dranken tegen betaalbare prijzen.
Dessert tegen betaalbare prijs.

Schrijf U hier in
Opleiding Piloot
Luchtdopen
Visit Us
Agenda
Opleiding Piloot
Doopvluchten
Visit Us
Volgende activiteit
Noordzee Vliegclub - Nieuwpoortsesteenweg 947 8400 Oostende - Tel 059 30 81 50 - Dit e-mailadres wordt beveiligd tegen spambots. JavaScript dient ingeschakeld te zijn om het te bekijken. -

 - Copyright 2014 Alle rechten voorbehouden.